Pagina principale
METAR-TAF:

METAR-TAF

Aeroporti :

Aeroporto di Niamey-Diori Hamani

Niamey, Niger

latitudine: 13-29N, longitudine: 002-10E, altezza: 223 m

Osservazione

Il bollettino è stato emesso 1 ora e 16 minuti fa, alle 00:00 UTC
Vento 4 kt da nord
Temperature 28°C
Umidità 8%
Pressione 1009 hPa
Visibilità 10 km o più
nessuna nube inferiore a 1500 m e nessun cumulonembo

METAR: DRRN 240000Z 01004KT CAVOK 28/M09 Q1009 NOSIG

Ora: 02:16 (01:16 UTC)

Previsione

Il bollettino è stato emesso 2 ore e 16 minuti fa, alle 23:00 UTC
Previsione valida dal 24 alle 00 UTC al 25 alle 06 UTC
Vento 8 kt da nord/nord-ovest
Visibilità: 8000 m
Temporaneamente
dal 24 alle 06 UTC al 24 alle 09 UTC
Visibilità: 4000 m
polvere diffusa

TAF: DRRN 232300Z 2400/2506 34008KT 8000 NSC TEMPO 2406/2409 4000 DU

Osservazioni e previsioni meteorologiche di più di 4000 aeroporti (messaggi METAR e TAF).

Le stazioni disponibili sono rappresentate dai dischi gialli e rossi sulla carta.

Puntare il mouse per vedere il nome della stazione.

Clicca sopra per visualizzare le osservazioni e previsioni meteorologiche.

Per cambiare la mappa : fare clic sui pulsanti verdi con una croce nera per ingrandire, il pulsante verde con un trattino per diminuire, o sulla freccia verde per le mappe adiacenti.


METAR-TAF: